Main page
METAR-TAF:

METAR-TAF

Airports :

Beirut, Lebanon

Beirut Air Base

latitude: 33-49N, longitude: 035-29E, elevation: 29 m

Current weather observation

The report was made 31 minutes ago, at 20:00 UTC
Wind 4 kt from the Northwest
Temperature 26°C
Humidity 70%
Pressure 1013 hPa
Visibility: 8000 m
Few clouds at a height of 2600 ft

METAR: OLBA 232000Z 31004KT 8000 FEW026 26/20 Q1013

Time: 23:31 (20:31 UTC)

Forecast

The report was made 4 hours and 31 minutes ago, at 16:00 UTC
Forecast valid from 23 at 18 UTC to 24 at 24 UTC
Wind 5 kt from variable directions
Visibility: 8000 m
Scattered clouds at a height of 2600 ft
Becoming
from 24 at 09 UTC to 24 at 12 UTC
Wind 13 kt from the West/Southwest
Becoming
from 24 at 21 UTC to 24 at 24 UTC
Wind 5 kt from variable directions
Temporary
from 23 at 18 UTC to 24 at 24 UTC
Visibility: 5000 m
mist

TAF: OLBA 231600Z 2318/2424 VRB05KT 8000 SCT026 BECMG 2409/2412 24013KT BECMG 2421/2424 VRB05KT TEMPO 2318/2424 5000 BR

Weather observations and forecasts of more than 4000 airports (METAR and TAF reports).

The available stations are represented by yellow and red dots on the map.

Hover mouse over dot to see the name of the station.

Then click to see weather observations and forecasts.

To change the map : click on the green buttons with a black cross to zoom in, on the green button with a dash to zoom out, or on the green arrows for adjacent maps.


METAR-TAF: